createdAt,value
2023-01-13T00:01:31.124Z,95730.78
2023-01-13T00:04:00.294Z,95732.05
2023-01-13T00:06:29.503Z,95735.48
2023-01-13T00:08:58.106Z,95735.27
2023-01-13T00:11:26.526Z,95736.79
2023-01-13T00:13:56.224Z,95739.83
2023-01-13T00:16:25.399Z,95743.31
2023-01-13T00:18:53.556Z,95742.44
2023-01-13T00:21:24.686Z,95745.61
2023-01-13T00:23:54.893Z,95748.10
2023-01-13T00:26:26.214Z,95754.16
2023-01-13T00:28:59.308Z,95754.77
2023-01-13T00:31:29.417Z,95750.91
2023-01-13T00:33:59.196Z,95749.84
2023-01-13T00:36:28.888Z,95753.17
2023-01-13T00:38:57.580Z,95756.77
2023-01-13T00:41:27.245Z,95752.95
2023-01-13T00:43:55.596Z,95748.21
2023-01-13T00:46:23.989Z,95747.07
2023-01-13T00:48:52.221Z,95746.66
2023-01-13T00:51:24.234Z,95749.09
2023-01-13T00:53:52.549Z,95751.75
2023-01-13T00:56:40.833Z,95748.95
2023-01-13T00:59:14.323Z,95751.52
2023-01-13T01:01:43.057Z,95753.23
2023-01-13T01:04:12.241Z,95755.58
2023-01-13T01:06:40.479Z,95756.84
2023-01-13T01:09:15.990Z,95759.50
2023-01-13T01:11:45.156Z,95758.92
2023-01-13T01:14:14.184Z,95758.70
2023-01-13T01:16:42.533Z,95755.27
2023-01-13T01:19:10.880Z,95752.83
2023-01-13T01:21:39.228Z,95748.14
2023-01-13T01:24:07.558Z,95745.35
2023-01-13T01:26:35.717Z,95740.79
2023-01-13T01:29:03.998Z,95738.56
2023-01-13T01:31:33.919Z,95733.27
2023-01-13T01:34:02.942Z,95733.99
2023-01-13T01:36:31.216Z,95735.02
2023-01-13T01:39:00.063Z,95732.76
2023-01-13T01:41:32.379Z,95735.85
2023-01-13T01:44:38.305Z,95731.73
2023-01-13T01:47:06.478Z,95730.38
2023-01-13T01:49:37.877Z,95726.13
2023-01-13T01:52:17.156Z,95726.26
2023-01-13T01:54:55.062Z,95727.24
2023-01-13T01:57:54.167Z,95726.61
2023-01-13T02:00:22.830Z,95728.28
2023-01-13T02:02:52.297Z,95725.52
2023-01-13T02:05:21.209Z,95723.59
2023-01-13T02:07:52.393Z,95723.86
2023-01-13T02:10:23.627Z,95722.91
2023-01-13T02:12:54.216Z,95720.84
2023-01-13T02:15:30.915Z,95717.88
2023-01-13T02:18:51.600Z,95715.57
2023-01-13T02:21:39.950Z,95718.27
2023-01-13T02:24:48.784Z,95719.98
2023-01-13T02:27:34.467Z,95718.31
2023-01-13T02:30:27.133Z,95721.80
2023-01-13T02:32:55.184Z,95720.70
2023-01-13T02:35:51.748Z,95720.17
2023-01-13T02:38:28.882Z,95722.54
2023-01-13T02:41:24.786Z,95723.30
2023-01-13T02:44:07.616Z,95723.64
2023-01-13T02:46:58.071Z,95722.46
2023-01-13T02:49:41.258Z,95723.62
2023-01-13T02:52:29.415Z,95725.12
2023-01-13T02:55:05.399Z,95722.86
2023-01-13T02:57:35.723Z,95725.15
2023-01-13T03:00:07.751Z,95726.46
2023-01-13T03:02:36.040Z,95722.48
2023-01-13T03:05:05.525Z,95718.45
2023-01-13T03:07:57.130Z,95716.92
2023-01-13T03:10:50.054Z,95720.20
2023-01-13T03:13:49.021Z,95722.50
2023-01-13T03:16:28.533Z,95720.48
2023-01-13T03:19:15.322Z,95718.46
2023-01-13T03:21:59.284Z,95722.16
2023-01-13T03:24:38.083Z,95723.27
2023-01-13T03:27:30.196Z,95719.30
2023-01-13T03:30:03.633Z,95720.54
2023-01-13T03:32:39.121Z,95720.55
2023-01-13T03:35:23.679Z,95722.77
2023-01-13T03:38:06.810Z,95725.14
2023-01-13T03:40:42.159Z,95727.40
2023-01-13T03:43:35.188Z,95729.10
2023-01-13T03:46:09.871Z,95723.58
2023-01-13T03:48:41.011Z,95726.34
2023-01-13T03:51:13.963Z,95725.48
2023-01-13T03:53:49.856Z,95726.50
2023-01-13T03:56:27.122Z,95728.07
2023-01-13T03:58:55.267Z,95731.40
2023-01-13T04:01:29.259Z,95731.13
2023-01-13T04:04:01.820Z,95731.83
2023-01-13T04:06:36.283Z,95726.50
2023-01-13T04:09:28.287Z,95730.45
2023-01-13T04:12:13.061Z,95730.36
2023-01-13T04:14:42.762Z,95732.30
2023-01-13T04:17:11.198Z,95731.39
2023-01-13T04:19:39.394Z,95732.11
2023-01-13T04:22:07.530Z,95734.23
2023-01-13T04:24:37.363Z,95733.48
2023-01-13T04:27:06.377Z,95736.78
2023-01-13T04:29:34.494Z,95738.25
2023-01-13T04:32:02.734Z,95738.54
2023-01-13T04:34:31.371Z,95734.86
2023-01-13T04:36:59.484Z,95736.78
2023-01-13T04:39:27.737Z,95741.65
2023-01-13T04:41:58.608Z,95740.85
2023-01-13T04:44:27.561Z,95738.06
2023-01-13T04:46:56.007Z,95736.27
2023-01-13T04:49:24.170Z,95739.00
2023-01-13T04:51:52.475Z,95737.23
2023-01-13T04:54:21.030Z,95741.41
2023-01-13T04:56:49.097Z,95739.63
2023-01-13T04:59:17.137Z,95740.70
2023-01-13T05:01:45.400Z,95743.40
2023-01-13T05:04:15.561Z,95744.42
2023-01-13T05:06:43.748Z,95742.61
2023-01-13T05:09:13.550Z,95743.40
2023-01-13T05:12:00.895Z,95743.59
2023-01-13T05:14:48.066Z,95740.40
2023-01-13T05:17:23.274Z,95743.42
2023-01-13T05:19:51.871Z,95745.30
2023-01-13T05:22:38.915Z,95741.16
2023-01-13T05:25:22.328Z,95743.70
2023-01-13T05:27:55.621Z,95742.67
2023-01-13T05:30:30.058Z,95746.67
2023-01-13T05:32:58.663Z,95750.05
2023-01-13T05:35:26.853Z,95751.27
2023-01-13T05:37:56.142Z,95757.94
2023-01-13T05:40:42.833Z,95757.80
2023-01-13T05:43:20.153Z,95755.77
2023-01-13T05:46:09.935Z,95754.86
2023-01-13T05:48:46.158Z,95758.00
2023-01-13T05:51:17.542Z,95757.52
2023-01-13T05:53:45.942Z,95763.48
2023-01-13T05:56:20.734Z,95762.66
2023-01-13T05:58:50.139Z,95762.09
2023-01-13T06:01:18.656Z,95759.23
2023-01-13T06:03:55.750Z,95758.28
2023-01-13T06:06:23.985Z,95761.11
2023-01-13T06:08:54.403Z,95763.08
2023-01-13T06:11:24.264Z,95766.95
2023-01-13T06:13:52.585Z,95771.37
2023-01-13T06:16:21.429Z,95771.21
2023-01-13T06:18:52.548Z,95769.61
2023-01-13T06:21:21.902Z,95778.75
2023-01-13T06:23:50.127Z,95775.54
2023-01-13T06:26:24.165Z,95775.12
2023-01-13T06:28:52.564Z,95776.58
2023-01-13T06:31:22.161Z,95779.89
2023-01-13T06:34:00.161Z,95779.86
2023-01-13T06:36:43.536Z,95780.02
2023-01-13T06:39:17.606Z,95778.44
2023-01-13T06:42:07.418Z,95784.20
2023-01-13T06:44:36.135Z,95781.52
2023-01-13T06:47:04.630Z,95775.02
2023-01-13T06:49:32.780Z,95773.69
2023-01-13T06:52:02.054Z,95775.70
2023-01-13T06:54:34.952Z,95777.73
2023-01-13T06:57:12.990Z,95778.48
2023-01-13T06:59:44.361Z,95773.41
2023-01-13T07:02:12.944Z,95769.98
2023-01-13T07:04:44.509Z,95765.53
2023-01-13T07:07:14.113Z,95764.48
2023-01-13T07:09:42.964Z,95760.83
2023-01-13T07:12:14.076Z,95757.94
2023-01-13T07:15:02.243Z,95751.89
2023-01-13T07:17:30.591Z,95743.27
2023-01-13T07:19:59.370Z,95741.93
2023-01-13T07:22:27.834Z,95737.81
2023-01-13T07:25:00.148Z,95737.73
2023-01-13T07:27:33.149Z,95734.05
2023-01-13T07:30:02.268Z,95730.81
2023-01-13T07:32:33.351Z,95725.23
2023-01-13T07:35:05.710Z,95720.90
2023-01-13T07:37:37.412Z,95720.80
2023-01-13T07:40:06.406Z,95716.23
2023-01-13T07:42:53.634Z,95716.76
2023-01-13T07:45:22.637Z,95718.85
2023-01-13T07:47:53.340Z,95720.95
2023-01-13T07:50:25.625Z,95715.68
2023-01-13T07:52:58.126Z,95721.67
2023-01-13T07:55:26.379Z,95719.87
2023-01-13T07:57:54.698Z,95722.90
2023-01-13T08:00:23.566Z,95721.31
2023-01-13T08:02:52.454Z,95717.48
2023-01-13T08:05:20.715Z,95720.70
2023-01-13T08:07:49.708Z,95720.73
2023-01-13T08:10:18.063Z,95724.48
2023-01-13T08:13:13.950Z,95723.98
2023-01-13T08:15:50.065Z,95722.48
2023-01-13T08:18:22.511Z,95720.79
2023-01-13T08:20:55.173Z,95724.90
2023-01-13T08:23:24.362Z,95724.50
2023-01-13T08:25:52.820Z,95722.63
2023-01-13T08:28:23.948Z,95722.70
2023-01-13T08:30:54.518Z,95725.04
2023-01-13T08:33:22.844Z,95727.02
2023-01-13T08:35:53.585Z,95728.69
2023-01-13T08:38:23.479Z,95727.52
2023-01-13T08:40:52.089Z,95727.00
2023-01-13T08:43:20.661Z,95729.74
2023-01-13T08:46:00.203Z,95730.75
2023-01-13T08:48:31.361Z,95727.17
2023-01-13T08:51:03.947Z,95727.98
2023-01-13T08:53:33.284Z,95727.42
2023-01-13T08:56:01.677Z,95723.47
2023-01-13T08:58:31.567Z,95723.96
2023-01-13T09:01:05.409Z,95720.91
2023-01-13T09:03:34.249Z,95720.05
2023-01-13T09:06:03.090Z,95725.02
2023-01-13T09:08:36.677Z,95723.20
2023-01-13T09:11:26.896Z,95717.89
2023-01-13T09:13:55.668Z,95717.20
2023-01-13T09:16:23.953Z,95718.66
2023-01-13T09:18:52.641Z,95715.80
2023-01-13T09:21:23.289Z,95707.90
2023-01-13T09:23:51.431Z,95704.09
2023-01-13T09:26:21.598Z,95701.98
2023-01-13T09:28:49.965Z,95698.42
2023-01-13T09:31:18.163Z,95697.48
2023-01-13T09:34:05.177Z,95700.22
2023-01-13T09:36:33.556Z,95698.59
2023-01-13T09:39:04.453Z,95698.96
2023-01-13T09:42:02.558Z,95694.77
2023-01-13T09:45:00.137Z,95687.08
2023-01-13T09:47:36.349Z,95685.57
2023-01-13T09:50:14.007Z,95683.88
2023-01-13T09:52:43.661Z,95676.30
2023-01-13T09:55:17.236Z,95676.23
2023-01-13T09:57:45.802Z,95677.02
2023-01-13T10:00:27.774Z,95681.73
2023-01-13T10:03:08.257Z,95684.28
2023-01-13T10:05:45.047Z,95681.64
2023-01-13T10:08:21.003Z,95686.95
2023-01-13T10:10:57.591Z,95684.11
2023-01-13T10:13:28.837Z,95680.62
2023-01-13T10:16:10.484Z,95678.48
2023-01-13T10:18:55.088Z,95678.19
2023-01-13T10:21:56.818Z,95678.04
2023-01-13T10:24:48.143Z,95674.23
2023-01-13T10:27:23.614Z,95668.66
2023-01-13T10:29:51.780Z,95666.48
2023-01-13T10:32:20.678Z,95664.98
2023-01-13T10:34:52.533Z,95666.36
2023-01-13T10:37:26.612Z,95661.59
2023-01-13T10:39:57.340Z,95663.08
2023-01-13T10:42:25.648Z,95662.56
2023-01-13T10:44:58.788Z,95661.50
2023-01-13T10:47:35.946Z,95661.66
2023-01-13T10:50:13.221Z,95661.53
2023-01-13T10:53:14.959Z,95661.27
2023-01-13T10:55:44.179Z,95656.39
2023-01-13T10:58:18.740Z,95651.09
2023-01-13T11:00:49.526Z,95646.02
2023-01-13T11:03:23.964Z,95643.66
2023-01-13T11:05:57.828Z,95636.77
2023-01-13T11:08:33.785Z,95633.20
2023-01-13T11:11:02.780Z,95630.58
2023-01-13T11:13:58.885Z,95630.45
2023-01-13T11:16:28.117Z,95627.95
2023-01-13T11:19:12.412Z,95629.31
2023-01-13T11:22:01.747Z,95624.00
2023-01-13T11:24:46.470Z,95622.86
2023-01-13T11:27:38.414Z,95620.55
2023-01-13T11:30:10.041Z,95614.20
2023-01-13T11:33:07.468Z,95608.94
2023-01-13T11:35:58.124Z,95611.64
2023-01-13T11:38:49.179Z,95606.94
2023-01-13T11:41:23.923Z,95609.06
2023-01-13T11:44:01.018Z,95598.94
2023-01-13T11:46:29.468Z,95602.20
2023-01-13T11:48:58.041Z,95595.73
2023-01-13T11:51:38.624Z,95595.98
2023-01-13T11:54:24.442Z,95595.05
2023-01-13T11:57:02.290Z,95594.76
2023-01-13T11:59:45.833Z,95595.59
2023-01-13T12:02:14.042Z,95589.45
2023-01-13T12:04:57.537Z,95588.27
2023-01-13T12:07:28.687Z,95590.23
2023-01-13T12:10:30.103Z,95594.27
2023-01-13T12:13:22.235Z,95588.36
2023-01-13T12:16:41.978Z,95596.36
2023-01-13T12:19:28.263Z,95599.73
2023-01-13T12:22:08.231Z,95597.55
2023-01-13T12:24:36.462Z,95596.06
2023-01-13T12:27:10.752Z,95598.82
2023-01-13T12:29:39.607Z,95606.79
2023-01-13T12:32:16.724Z,95604.98
2023-01-13T12:34:47.757Z,95602.58
2023-01-13T12:37:38.632Z,95604.90
2023-01-13T12:40:28.655Z,95605.16
2023-01-13T12:43:38.577Z,95601.45
2023-01-13T12:46:18.931Z,95597.24
2023-01-13T12:49:05.018Z,95604.33
2023-01-13T12:51:57.635Z,95602.21
2023-01-13T12:54:49.087Z,95604.11
2023-01-13T12:57:17.304Z,95605.23
2023-01-13T13:00:04.562Z,95604.38
2023-01-13T13:02:36.069Z,95610.36
2023-01-13T13:05:24.606Z,95613.25
2023-01-13T13:08:05.931Z,95608.97
2023-01-13T13:10:39.117Z,95614.98
2023-01-13T13:13:20.415Z,95616.78
2023-01-13T13:15:51.199Z,95617.87
2023-01-13T13:18:20.513Z,95616.66
2023-01-13T13:20:55.176Z,95616.13
2023-01-13T13:23:26.462Z,95611.73
2023-01-13T13:26:16.555Z,95615.77
2023-01-13T13:28:49.144Z,95616.45
2023-01-13T13:31:45.102Z,95615.19
2023-01-13T13:34:29.913Z,95618.95
2023-01-13T13:37:59.529Z,95620.13
2023-01-13T13:40:51.672Z,95618.67
2023-01-13T13:43:59.342Z,95616.77
2023-01-13T13:46:49.329Z,95616.50
2023-01-13T13:49:34.446Z,95615.11
2023-01-13T13:52:15.463Z,95610.64
2023-01-13T13:54:48.088Z,95612.52
2023-01-13T13:57:19.579Z,95614.74
2023-01-13T13:59:54.074Z,95610.09
2023-01-13T14:02:29.956Z,95613.23
2023-01-13T14:05:24.475Z,95610.24
2023-01-13T14:08:16.597Z,95611.17
2023-01-13T14:10:46.377Z,95611.44
2023-01-13T14:13:31.490Z,95611.20
2023-01-13T14:16:05.708Z,95609.05
2023-01-13T14:18:41.276Z,95609.67
2023-01-13T14:21:38.874Z,95613.60
2023-01-13T14:24:17.685Z,95618.46
2023-01-13T14:26:51.527Z,95622.41
2023-01-13T14:29:24.528Z,95618.44
2023-01-13T14:31:54.779Z,95621.09
2023-01-13T14:34:31.988Z,95616.63
2023-01-13T14:37:03.163Z,95622.30
2023-01-13T14:39:38.970Z,95622.15
2023-01-13T14:42:14.352Z,95622.04
2023-01-13T14:44:47.694Z,95623.80
2023-01-13T14:47:36.079Z,95619.29
2023-01-13T14:50:17.069Z,95623.20
2023-01-13T14:52:52.813Z,95622.77
2023-01-13T14:55:26.824Z,95624.39
2023-01-13T14:58:20.648Z,95623.41
2023-01-13T15:00:52.188Z,95620.05
2023-01-13T15:03:22.069Z,95624.77
2023-01-13T15:05:56.076Z,95624.94
2023-01-13T15:08:31.547Z,95625.53
2023-01-13T15:11:05.357Z,95624.79
2023-01-13T15:13:55.561Z,95628.21
2023-01-13T15:16:26.460Z,95623.77
2023-01-13T15:18:55.870Z,95624.98
2023-01-13T15:21:25.448Z,95626.33
2023-01-13T15:23:53.677Z,95624.83
2023-01-13T15:26:27.712Z,95627.41
2023-01-13T15:28:57.854Z,95630.96
2023-01-13T15:31:27.843Z,95634.65
2023-01-13T15:33:56.254Z,95631.92
2023-01-13T15:39:14.245Z,95626.45
2023-01-13T15:42:01.122Z,95623.26
2023-01-13T15:44:47.848Z,95623.52
2023-01-13T15:47:15.959Z,95621.67
2023-01-13T15:49:45.737Z,95618.29
2023-01-13T15:52:21.670Z,95624.33
2023-01-13T15:54:51.118Z,95624.69
2023-01-13T15:57:34.249Z,95626.56
2023-01-13T16:00:15.091Z,95622.65
2023-01-13T16:02:44.622Z,95619.85
2023-01-13T16:05:13.368Z,95624.25
2023-01-13T16:07:41.574Z,95625.48
2023-01-13T16:10:21.136Z,95624.59
2023-01-13T16:12:49.381Z,95624.92
2023-01-13T16:15:18.461Z,95626.14
2023-01-13T16:17:46.784Z,95628.55
2023-01-13T16:20:19.014Z,95629.60
2023-01-13T16:22:47.150Z,95625.23
2023-01-13T16:25:17.678Z,95632.27
2023-01-13T16:27:46.832Z,95631.41
2023-01-13T16:30:21.151Z,95630.64
2023-01-13T16:32:49.375Z,95637.48
2023-01-13T16:35:19.173Z,95638.66
2023-01-13T16:37:48.618Z,95637.77
2023-01-13T16:40:26.053Z,95634.50
2023-01-13T16:42:54.127Z,95636.77
2023-01-13T16:45:22.612Z,95635.91
2023-01-13T16:47:52.893Z,95636.48
2023-01-13T16:50:37.452Z,95637.15
2023-01-13T16:53:06.425Z,95634.88
2023-01-13T16:55:35.188Z,95637.48
2023-01-13T16:58:04.268Z,95639.90
2023-01-13T17:00:35.203Z,95641.35
2023-01-13T17:03:03.399Z,95640.73
2023-01-13T17:05:31.496Z,95639.10
2023-01-13T17:08:00.313Z,95637.40
2023-01-13T17:10:28.718Z,95639.86
2023-01-13T17:12:58.354Z,95640.09
2023-01-13T17:15:28.233Z,95640.63
2023-01-13T17:17:57.344Z,95643.27
2023-01-13T17:20:25.595Z,95640.71
2023-01-13T17:22:58.794Z,95644.73
2023-01-13T17:25:27.153Z,95639.98
2023-01-13T17:27:56.084Z,95642.91
2023-01-13T17:30:24.258Z,95641.31
2023-01-13T17:32:52.431Z,95641.10
2023-01-13T17:35:25.029Z,95641.45
2023-01-13T17:37:54.269Z,95638.22
2023-01-13T17:40:22.834Z,95638.61
2023-01-13T17:42:50.965Z,95637.30
2023-01-13T17:45:19.092Z,95639.85
2023-01-13T17:47:47.546Z,95637.90
2023-01-13T17:50:17.444Z,95634.20
2023-01-13T17:52:45.623Z,95636.33
2023-01-13T17:55:13.835Z,95635.03
2023-01-13T17:57:41.967Z,95631.02
2023-01-13T18:00:12.289Z,95637.14
2023-01-13T18:02:40.455Z,95642.92
2023-01-13T18:05:09.088Z,95643.83
2023-01-13T18:07:37.290Z,95637.70
2023-01-13T18:10:05.760Z,95639.45
2023-01-13T18:12:34.951Z,95635.01
2023-01-13T18:15:03.286Z,95637.30
2023-01-13T18:17:31.462Z,95639.23
2023-01-13T18:20:18.119Z,95639.52
2023-01-13T18:23:04.885Z,95635.10
2023-01-13T18:25:51.674Z,95632.29
2023-01-13T18:28:19.862Z,95640.03
2023-01-13T18:30:48.376Z,95639.27
2023-01-13T18:33:16.647Z,95640.89
2023-01-13T18:35:44.759Z,95639.23
2023-01-13T18:38:16.428Z,95640.09
2023-01-13T18:40:45.091Z,95642.34
2023-01-13T18:43:13.592Z,95641.39
2023-01-13T18:45:41.851Z,95638.98
2023-01-13T18:48:10.581Z,95640.11
2023-01-13T18:50:38.899Z,95642.08
2023-01-13T18:53:08.199Z,95641.11
2023-01-13T18:55:37.604Z,95637.36
2023-01-13T18:58:06.031Z,95640.62
2023-01-13T19:00:37.181Z,95638.55
2023-01-13T19:05:36.005Z,95640.62
2023-01-13T19:08:04.789Z,95643.66
2023-01-13T19:10:33.357Z,95646.70
2023-01-13T19:13:01.835Z,95643.61
2023-01-13T19:15:30.469Z,95643.73
2023-01-13T19:18:00.090Z,95640.80
2023-01-13T19:20:28.380Z,95641.02
2023-01-13T19:22:56.488Z,95641.48
2023-01-13T19:25:24.672Z,95644.06
2023-01-13T19:27:52.832Z,95643.67
2023-01-13T19:30:21.172Z,95641.05
2023-01-13T19:32:49.327Z,95640.31
2023-01-13T19:35:18.217Z,95638.59
2023-01-13T19:37:46.917Z,95635.04
2023-01-13T19:40:15.818Z,95640.05
2023-01-13T19:43:03.547Z,95637.36
2023-01-13T19:45:35.232Z,95648.93
2023-01-13T19:48:05.687Z,95647.42
2023-01-13T19:50:38.872Z,95649.31
2023-01-13T19:53:08.284Z,95646.60
2023-01-13T19:55:36.433Z,95648.12
2023-01-13T19:58:04.612Z,95648.42
2023-01-13T20:00:33.496Z,95651.52
2023-01-13T20:03:04.529Z,95650.80
2023-01-13T20:05:32.749Z,95653.55
2023-01-13T20:08:00.961Z,95652.41
2023-01-13T20:10:30.739Z,95652.55
2023-01-13T20:12:59.388Z,95650.11
2023-01-13T20:15:28.161Z,95653.44
2023-01-13T20:17:58.197Z,95653.56
2023-01-13T20:20:27.473Z,95657.80
2023-01-13T20:22:55.707Z,95657.80
2023-01-13T20:25:23.970Z,95655.75
2023-01-13T20:27:53.066Z,95654.16
2023-01-13T20:30:21.640Z,95658.70
2023-01-13T20:32:49.713Z,95663.60
2023-01-13T20:35:18.503Z,95663.11
2023-01-13T20:37:46.621Z,95665.02
2023-01-13T20:40:15.933Z,95665.70
2023-01-13T20:42:47.164Z,95661.35
2023-01-13T20:45:20.519Z,95659.15
2023-01-13T20:47:48.931Z,95658.23
2023-01-13T20:50:17.789Z,95654.98
2023-01-13T20:52:46.985Z,95664.29
2023-01-13T20:55:15.332Z,95666.39
2023-01-13T20:57:43.814Z,95665.95
2023-01-13T21:00:13.578Z,95663.78
2023-01-13T21:02:41.968Z,95664.67
2023-01-13T21:05:10.272Z,95669.59
2023-01-13T21:07:38.442Z,95669.78
2023-01-13T21:10:11.339Z,95670.88
2023-01-13T21:12:58.115Z,95673.92
2023-01-13T21:15:27.649Z,95675.21
2023-01-13T21:18:14.443Z,95678.07
2023-01-13T21:20:42.473Z,95679.19
2023-01-13T21:23:10.990Z,95681.45
2023-01-13T21:25:40.589Z,95685.08
2023-01-13T21:28:11.748Z,95688.70
2023-01-13T21:30:40.151Z,95690.94
2023-01-13T21:33:13.510Z,95689.44
2023-01-13T21:35:41.701Z,95689.92
2023-01-13T21:38:11.289Z,95690.08
2023-01-13T21:40:39.472Z,95691.25
2023-01-13T21:43:30.319Z,95690.44
2023-01-13T21:46:17.280Z,95688.86
2023-01-13T21:48:45.616Z,95691.69
2023-01-13T21:51:13.810Z,95695.97
2023-01-13T21:53:42.139Z,95697.83
2023-01-13T21:56:10.299Z,95696.55
2023-01-13T21:58:39.245Z,95697.77
2023-01-13T22:01:09.778Z,95702.13
2023-01-13T22:03:59.722Z,95706.36
2023-01-13T22:06:27.989Z,95708.81
2023-01-13T22:09:00.068Z,95709.77
2023-01-13T22:11:28.662Z,95706.41
2023-01-13T22:14:06.858Z,95704.24
2023-01-13T22:16:41.873Z,95704.64
2023-01-13T22:19:10.496Z,95708.55
2023-01-13T22:21:40.011Z,95713.42
2023-01-13T22:24:09.523Z,95709.79
2023-01-13T22:26:37.605Z,95709.96
2023-01-13T22:29:05.909Z,95705.23
2023-01-13T22:31:34.155Z,95706.54
2023-01-13T22:34:02.377Z,95702.17
2023-01-13T22:36:30.564Z,95702.59
2023-01-13T22:39:00.656Z,95704.60
2023-01-13T22:41:29.007Z,95710.14
2023-01-13T22:43:57.268Z,95710.62
2023-01-13T22:46:25.536Z,95709.21
2023-01-13T22:48:56.098Z,95711.33
2023-01-13T22:51:24.346Z,95713.78
2023-01-13T22:53:53.588Z,95711.88
2023-01-13T22:56:23.820Z,95714.30
2023-01-13T22:59:00.543Z,95715.79
2023-01-13T23:01:31.726Z,95710.77
2023-01-13T23:04:01.744Z,95708.92
2023-01-13T23:06:31.578Z,95707.89
2023-01-13T23:09:00.673Z,95708.67
2023-01-13T23:11:30.171Z,95706.59
2023-01-13T23:14:01.295Z,95710.17
2023-01-13T23:16:32.550Z,95704.75
2023-01-13T23:19:00.882Z,95699.33
2023-01-13T23:21:31.445Z,95698.85
2023-01-13T23:24:00.480Z,95695.27
2023-01-13T23:26:29.465Z,95699.85
2023-01-13T23:29:04.211Z,95696.23
2023-01-13T23:31:32.849Z,95687.35
2023-01-13T23:34:01.353Z,95686.73
2023-01-13T23:36:29.873Z,95687.10
2023-01-13T23:38:59.678Z,95687.08
2023-01-13T23:41:28.586Z,95686.92
2023-01-13T23:43:59.218Z,95682.27
2023-01-13T23:46:30.371Z,95677.09
2023-01-13T23:48:58.938Z,95677.02
2023-01-13T23:51:30.018Z,95674.05
2023-01-13T23:53:59.532Z,95673.28
2023-01-13T23:56:30.591Z,95676.10
2023-01-13T23:58:58.976Z,95674.54
